weerbeeld Almere Meer informatie weerbeeld Almere


Onweer radar Meer informatie blitzortung!


Regen radar Meer informatie rain snow radar


Apparatuur in gebruik:

Davis VP2

Meteohub

ALIX 1D

Web-Oke


Mist van: 16-12-2018 19:00 tot: 17-12-2018 00:00 waarschuwing voor: Mist niveau: Geel info button

METAR rapporten vliegvelden

   
EHAM - Amsterdam/Schiph, Netherlands
Afstand tot: WZW 42 km
Gewijzigd: 16-12-2018 20:55
Partial, Mist, Bewolking  
Partial, Mist, Bewolking  
   Wind: ZZO 13 km/h
Wind: ZZO 13 km/h
Temperatuur: 4°C
Voelt als: 1°C
Dauwpunt: 3°C
Vochtigheid: 93%
Barometer: 1011 hPa
Bewolking: Overcast
Zicht: 1 km
Bewolking: Grotendeels bewolkt 100 ft,
Bewolking 200 ft
EHAM 161955Z 16007KT 0700 R18C/1900U R27/1000N R18R/0800U R06/1800N PRFG BKN001 OVC002 04/03 Q1011 TEMPO 1500 SCT001 BKN002
EHDL - Deelen Rnlafb, Netherlands
Afstand tot: ZO 49 km
Gewijzigd: 16-12-2018 20:55
Nevel, Bewolking  
Nevel, Bewolking  
   Wind: Zuiden 13 km/h
Wind: Zuiden 13 km/h
Temperatuur: 2°C
Voelt als: -2°C
Dauwpunt: 2°C
Vochtigheid: 100%
Barometer: 1012 hPa
Bewolking: Overcast
Zicht: 1 km
Bewolking: Bewolking 100 ft
EHDL 161955Z AUTO 18007KT 140V230 1400 BR OVC001 02/02 Q1012 RED
EHKD - De Kooy (navy), Netherlands
Afstand tot: NW 72 km
Gewijzigd: 16-12-2018 20:55
Mist, Bewolking  
Mist, Bewolking  
   Wind: ZO 13 km/h
Wind: ZO 13 km/h
Temperatuur: 3°C
Voelt als: -1°C
Dauwpunt: 3°C
Vochtigheid: 100%
Barometer: 1010 hPa
Bewolking: Overcast
Zicht: 1 km
Bewolking: Bewolking 0 ft
EHKD 161955Z AUTO 14007KT 110V170 0800 FG OVC000 03/03 Q1010 RED
EHRD - Rotterdam Airpor, Netherlands
Afstand tot: ZW 80 km
Gewijzigd: 16-12-2018 20:55
Nevel, Bewolking  
Nevel, Bewolking  
   Wind: ZZW 13 km/h
Wind: ZZW 13 km/h
Temperatuur: 4°C
Voelt als: 1°C
Dauwpunt: 4°C
Vochtigheid: 100%
Barometer: 1011 hPa
Bewolking: Overcast
Zicht: 1 km
Bewolking: Bewolking 100 ft
EHRD 161955Z AUTO 20007KT 170V230 1200 R24/1800D BR OVC001 04/04 Q1011 TEMPO 0800 FG
EHVK - Volkel Rnlafb, Netherlands
Afstand tot: ZZO 87 km
Gewijzigd: 16-12-2018 20:55
Nevel, Bewolking  
Nevel, Bewolking  
   Wind: Zuiden 13 km/h
Wind: Zuiden 13 km/h
Temperatuur: 3°C
Voelt als: -1°C
Dauwpunt: 3°C
Vochtigheid: 100%
Barometer: 1012 hPa
Bewolking: Overcast
Zicht: 1 km
Bewolking: Bewolking 100 ft
EHVK 161955Z AUTO 18007KT 170V240 1300 R06L/0800D BR OVC001 03/03 Q1012 RED
EHLW - Leeuwarden Rnlaf, Netherlands
Afstand tot: NNO 95 km
Gewijzigd: 16-12-2018 20:55
Mist, Bewolking  
Mist, Bewolking  
   Wind: Zuiden 13 km/h
Wind: Zuiden 13 km/h
Temperatuur: 2°C
Voelt als: -2°C
Dauwpunt: 2°C
Vochtigheid: 100%
Barometer: 1011 hPa
Bewolking: Overcast
Zicht: 1 km
Bewolking: Bewolking 100 ft
EHLW 161955Z AUTO 17007KT 140V210 0800 FG OVC001 02/02 Q1011 RED

Script ontwikkeld door  Saratoga-weather.org Aangepast voor de template door  Weerstation Leuven

U vindt ons ook hier:

Het Weer Aktueel

UK Metoffice

European Weather Network

Weather Underground

AWEKAS